sensor_id;sensor_type;location;lat;lon;timestamp;pressure;altitude;pressure_sealevel;temperature;humidity
42591;BME280;28218;53.342;-6.216;2023-02-08T00:01:22;103429.56;;;7.73;100.00
42591;BME280;28218;53.342;-6.216;2023-02-08T00:03:52;103433.88;;;7.74;100.00
42591;BME280;28218;53.342;-6.216;2023-02-08T00:06:21;103429.47;;;7.75;100.00
42591;BME280;28218;53.342;-6.216;2023-02-08T00:08:49;103417.13;;;7.77;100.00
42591;BME280;28218;53.342;-6.216;2023-02-08T00:11:17;103425.66;;;7.80;100.00
42591;BME280;28218;53.342;-6.216;2023-02-08T00:13:45;103426.34;;;7.84;100.00
42591;BME280;28218;53.342;-6.216;2023-02-08T00:16:14;103424.41;;;7.87;100.00
42591;BME280;28218;53.342;-6.216;2023-02-08T00:18:44;103424.41;;;7.87;100.00
42591;BME280;28218;53.342;-6.216;2023-02-08T00:21:15;103418.22;;;7.88;100.00
42591;BME280;28218;53.342;-6.216;2023-02-08T00:23:44;103412.13;;;7.88;100.00
42591;BME280;28218;53.342;-6.216;2023-02-08T00:26:13;103413.75;;;7.90;100.00
42591;BME280;28218;53.342;-6.216;2023-02-08T00:28:41;103407.56;;;7.91;100.00
42591;BME280;28218;53.342;-6.216;2023-02-08T00:31:09;103412.72;;;7.93;100.00
42591;BME280;28218;53.342;-6.216;2023-02-08T00:33:38;103410.00;;;7.94;100.00
42591;BME280;28218;53.342;-6.216;2023-02-08T00:36:07;103400.53;;;7.92;100.00
42591;BME280;28218;53.342;-6.216;2023-02-08T00:38:37;103402.22;;;7.93;100.00
42591;BME280;28218;53.342;-6.216;2023-02-08T00:41:05;103397.81;;;7.93;100.00
42591;BME280;28218;53.342;-6.216;2023-02-08T00:43:33;103390.69;;;7.96;100.00
42591;BME280;28218;53.342;-6.216;2023-02-08T00:46:02;103384.56;;;7.95;100.00
42591;BME280;28218;53.342;-6.216;2023-02-08T00:48:30;103383.72;;;7.94;100.00
42591;BME280;28218;53.342;-6.216;2023-02-08T00:51:00;103381.88;;;7.97;100.00
42591;BME280;28218;53.342;-6.216;2023-02-08T00:53:29;103368.66;;;7.98;100.00
42591;BME280;28218;53.342;-6.216;2023-02-08T00:55:58;103374.75;;;7.99;100.00
42591;BME280;28218;53.342;-6.216;2023-02-08T00:58:27;103364.19;;;8.00;100.00
42591;BME280;28218;53.342;-6.216;2023-02-08T01:00:55;103357.91;;;8.03;100.00
42591;BME280;28218;53.342;-6.216;2023-02-08T01:03:23;103350.88;;;8.03;100.00
42591;BME280;28218;53.342;-6.216;2023-02-08T01:05:52;103356.13;;;8.03;100.00
42591;BME280;28218;53.342;-6.216;2023-02-08T01:08:20;103352.56;;;8.04;100.00
42591;BME280;28218;53.342;-6.216;2023-02-08T01:10:48;103342.03;;;8.04;100.00
42591;BME280;28218;53.342;-6.216;2023-02-08T01:13:18;103344.66;;;8.04;100.00
42591;BME280;28218;53.342;-6.216;2023-02-08T01:15:46;103346.47;;;8.04;100.00
42591;BME280;28218;53.342;-6.216;2023-02-08T01:18:14;103336.91;;;8.03;100.00
42591;BME280;28218;53.342;-6.216;2023-02-08T01:20:42;103343.94;;;8.02;100.00
42591;BME280;28218;53.342;-6.216;2023-02-08T01:23:11;103335.22;;;8.02;100.00
42591;BME280;28218;53.342;-6.216;2023-02-08T01:25:39;103339.63;;;8.01;100.00
42591;BME280;28218;53.342;-6.216;2023-02-08T01:28:08;103333.53;;;8.01;100.00
42591;BME280;28218;53.342;-6.216;2023-02-08T01:30:37;103316.81;;;8.02;100.00
42591;BME280;28218;53.342;-6.216;2023-02-08T01:33:06;103311.56;;;8.02;100.00
42591;BME280;28218;53.342;-6.216;2023-02-08T01:35:34;103311.69;;;8.00;100.00
42591;BME280;28218;53.342;-6.216;2023-02-08T01:38:03;103305.47;;;8.01;100.00
42591;BME280;28218;53.342;-6.216;2023-02-08T01:40:31;103301.91;;;8.02;100.00
42591;BME280;28218;53.342;-6.216;2023-02-08T01:42:59;103308.00;;;8.03;100.00
42591;BME280;28218;53.342;-6.216;2023-02-08T01:45:29;103292.84;;;8.08;100.00
42591;BME280;28218;53.342;-6.216;2023-02-08T01:48:07;103292.94;;;8.06;100.00
42591;BME280;28218;53.342;-6.216;2023-02-08T01:50:42;103287.69;;;8.06;100.00
42591;BME280;28218;53.342;-6.216;2023-02-08T01:53:12;103279.91;;;8.05;100.00
42591;BME280;28218;53.342;-6.216;2023-02-08T01:55:44;103268.47;;;8.06;100.00
42591;BME280;28218;53.342;-6.216;2023-02-08T01:58:14;103273.72;;;8.06;100.00
42591;BME280;28218;53.342;-6.216;2023-02-08T02:00:45;103267.50;;;8.07;100.00
42591;BME280;28218;53.342;-6.216;2023-02-08T02:03:16;103263.00;;;8.09;100.00
42591;BME280;28218;53.342;-6.216;2023-02-08T02:05:47;103260.31;;;8.10;100.00
42591;BME280;28218;53.342;-6.216;2023-02-08T02:08:16;103248.97;;;8.10;100.00
42591;BME280;28218;53.342;-6.216;2023-02-08T02:10:46;103246.59;;;8.05;100.00
42591;BME280;28218;53.342;-6.216;2023-02-08T02:13:16;103253.91;;;8.00;100.00
42591;BME280;28218;53.342;-6.216;2023-02-08T02:15:45;103251.56;;;7.96;100.00
42591;BME280;28218;53.342;-6.216;2023-02-08T02:18:19;103240.53;;;7.89;100.00
42591;BME280;28218;53.342;-6.216;2023-02-08T02:20:59;103239.97;;;7.84;100.00
42591;BME280;28218;53.342;-6.216;2023-02-08T02:24:02;103241.34;;;7.75;100.00
42591;BME280;28218;53.342;-6.216;2023-02-08T02:26:57;103228.47;;;7.71;100.00
42591;BME280;28218;53.342;-6.216;2023-02-08T02:32:49;103219.59;;;7.57;100.00
42591;BME280;28218;53.342;-6.216;2023-02-08T02:35:26;103211.09;;;7.54;100.00
42591;BME280;28218;53.342;-6.216;2023-02-08T02:38:07;103207.78;;;7.50;100.00
42591;BME280;28218;53.342;-6.216;2023-02-08T02:40:47;103206.16;;;7.48;100.00
42591;BME280;28218;53.342;-6.216;2023-02-08T02:43:22;103202.97;;;7.42;100.00
42591;BME280;28218;53.342;-6.216;2023-02-08T02:46:14;103196.13;;;7.40;100.00
42591;BME280;28218;53.342;-6.216;2023-02-08T02:48:52;103193.69;;;7.37;100.00
42591;BME280;28218;53.342;-6.216;2023-02-08T02:51:28;103190.38;;;7.33;100.00
42591;BME280;28218;53.342;-6.216;2023-02-08T02:54:05;103195.72;;;7.32;100.00
42591;BME280;28218;53.342;-6.216;2023-02-08T02:56:36;103200.13;;;7.31;100.00
42591;BME280;28218;53.342;-6.216;2023-02-08T02:59:08;103191.50;;;7.29;100.00
42591;BME280;28218;53.342;-6.216;2023-02-08T03:01:37;103187.09;;;7.30;100.00
42591;BME280;28218;53.342;-6.216;2023-02-08T03:04:14;103182.84;;;7.27;100.00
42591;BME280;28218;53.342;-6.216;2023-02-08T03:06:57;103175.16;;;7.24;100.00
42591;BME280;28218;53.342;-6.216;2023-02-08T03:12:33;103168.22;;;7.23;100.00
42591;BME280;28218;53.342;-6.216;2023-02-08T03:15:15;103167.53;;;7.20;100.00
42591;BME280;28218;53.342;-6.216;2023-02-08T03:17:58;103167.91;;;7.13;100.00
42591;BME280;28218;53.342;-6.216;2023-02-08T03:20:37;103164.69;;;7.08;100.00
42591;BME280;28218;53.342;-6.216;2023-02-08T03:23:08;103156.97;;;7.05;100.00
42591;BME280;28218;53.342;-6.216;2023-02-08T03:25:48;103157.19;;;7.02;100.00
42591;BME280;28218;53.342;-6.216;2023-02-08T03:28:22;103149.47;;;6.99;100.00
42591;BME280;28218;53.342;-6.216;2023-02-08T03:30:57;103154.63;;;7.01;100.00
42591;BME280;28218;53.342;-6.216;2023-02-08T03:33:34;103157.25;;;7.01;100.00
42591;BME280;28218;53.342;-6.216;2023-02-08T03:36:09;103149.63;;;6.96;100.00
42591;BME280;28218;53.342;-6.216;2023-02-08T03:38:43;103141.97;;;6.93;100.00
42591;BME280;28218;53.342;-6.216;2023-02-08T03:41:15;103150.75;;;6.92;100.00
42591;BME280;28218;53.342;-6.216;2023-02-08T03:43:48;103141.28;;;6.89;100.00
42591;BME280;28218;53.342;-6.216;2023-02-08T03:46:21;103135.34;;;6.86;100.00
42591;BME280;28218;53.342;-6.216;2023-02-08T03:48:55;103127.59;;;6.84;100.00
42591;BME280;28218;53.342;-6.216;2023-02-08T03:51:28;103139.84;;;6.84;100.00
42591;BME280;28218;53.342;-6.216;2023-02-08T03:54:00;103140.84;;;6.81;100.00
42591;BME280;28218;53.342;-6.216;2023-02-08T03:56:34;103143.47;;;6.81;100.00
42591;BME280;28218;53.342;-6.216;2023-02-08T03:59:07;103152.25;;;6.80;100.00
42591;BME280;28218;53.342;-6.216;2023-02-08T04:01:41;103158.44;;;6.79;100.00
42591;BME280;28218;53.342;-6.216;2023-02-08T04:04:13;103142.97;;;6.75;100.00
42591;BME280;28218;53.342;-6.216;2023-02-08T04:06:43;103150.97;;;6.72;100.00
42591;BME280;28218;53.342;-6.216;2023-02-08T04:09:12;103150.97;;;6.72;100.00
42591;BME280;28218;53.342;-6.216;2023-02-08T04:11:40;103152.84;;;6.70;100.00
42591;BME280;28218;53.342;-6.216;2023-02-08T04:14:08;103156.31;;;6.70;100.00
42591;BME280;28218;53.342;-6.216;2023-02-08T04:16:37;103156.41;;;6.69;100.00
42591;BME280;28218;53.342;-6.216;2023-02-08T04:19:05;103153.09;;;6.65;100.00
42591;BME280;28218;53.342;-6.216;2023-02-08T04:21:33;103144.47;;;6.63;100.00
42591;BME280;28218;53.342;-6.216;2023-02-08T04:24:03;103159.28;;;6.64;100.00
42591;BME280;28218;53.342;-6.216;2023-02-08T04:26:31;103164.44;;;6.65;100.00
42591;BME280;28218;53.342;-6.216;2023-02-08T04:28:59;103168.81;;;6.65;100.00
42591;BME280;28218;53.342;-6.216;2023-02-08T04:31:28;103171.53;;;6.63;100.00
42591;BME280;28218;53.342;-6.216;2023-02-08T04:33:56;103167.28;;;6.61;100.00
42591;BME280;28218;53.342;-6.216;2023-02-08T04:36:24;103178.72;;;6.60;100.00
42591;BME280;28218;53.342;-6.216;2023-02-08T04:38:52;103192.91;;;6.56;100.00
42591;BME280;28218;53.342;-6.216;2023-02-08T04:41:22;103198.22;;;6.54;100.00
42591;BME280;28218;53.342;-6.216;2023-02-08T04:43:50;103190.44;;;6.53;100.00
42591;BME280;28218;53.342;-6.216;2023-02-08T04:46:18;103197.19;;;6.57;100.00
42591;BME280;28218;53.342;-6.216;2023-02-08T04:48:47;103206.69;;;6.59;100.00
42591;BME280;28218;53.342;-6.216;2023-02-08T04:51:15;103201.34;;;6.61;100.00
42591;BME280;28218;53.342;-6.216;2023-02-08T04:53:43;103193.50;;;6.61;100.00
42591;BME280;28218;53.342;-6.216;2023-02-08T04:56:11;103177.19;;;6.56;100.00
42591;BME280;28218;53.342;-6.216;2023-02-08T04:58:41;103169.16;;;6.59;100.00
42591;BME280;28218;53.342;-6.216;2023-02-08T05:01:10;103161.38;;;6.57;100.00
42591;BME280;28218;53.342;-6.216;2023-02-08T05:03:38;103151.66;;;6.59;100.00
42591;BME280;28218;53.342;-6.216;2023-02-08T05:06:06;103145.50;;;6.60;100.00
42591;BME280;28218;53.342;-6.216;2023-02-08T05:08:34;103141.09;;;6.61;100.00
42591;BME280;28218;53.342;-6.216;2023-02-08T05:11:03;103120.13;;;6.61;100.00
42591;BME280;28218;53.342;-6.216;2023-02-08T05:13:31;103116.59;;;6.62;100.00
42591;BME280;28218;53.342;-6.216;2023-02-08T05:16:01;103106.19;;;6.60;100.00
42591;BME280;28218;53.342;-6.216;2023-02-08T05:18:29;103101.91;;;6.59;100.00
42591;BME280;28218;53.342;-6.216;2023-02-08T05:20:59;103096.66;;;6.59;100.00
42591;BME280;28218;53.342;-6.216;2023-02-08T05:23:27;103087.19;;;6.57;100.00
42591;BME280;28218;53.342;-6.216;2023-02-08T05:25:56;103085.50;;;6.56;100.00
42591;BME280;28218;53.342;-6.216;2023-02-08T05:28:24;103068.09;;;6.55;100.00
42591;BME280;28218;53.342;-6.216;2023-02-08T05:30:52;103057.63;;;6.55;100.00
42591;BME280;28218;53.342;-6.216;2023-02-08T05:33:22;103062.84;;;6.55;100.00
42591;BME280;28218;53.342;-6.216;2023-02-08T05:35:50;103062.84;;;6.55;100.00
42591;BME280;28218;53.342;-6.216;2023-02-08T05:38:18;103066.22;;;6.57;100.00
42591;BME280;28218;53.342;-6.216;2023-02-08T05:40:47;103072.31;;;6.57;100.00
42591;BME280;28218;53.342;-6.216;2023-02-08T05:43:15;103071.47;;;6.57;100.00
42591;BME280;28218;53.342;-6.216;2023-02-08T05:45:44;103078.63;;;6.53;100.00
42591;BME280;28218;53.342;-6.216;2023-02-08T05:48:12;103070.13;;;6.50;100.00
42591;BME280;28218;53.342;-6.216;2023-02-08T05:50:42;103069.44;;;6.46;100.00
42591;BME280;28218;53.342;-6.216;2023-02-08T05:53:10;103066.28;;;6.39;100.00
42591;BME280;28218;53.342;-6.216;2023-02-08T05:55:38;103069.25;;;6.33;100.00
42591;BME280;28218;53.342;-6.216;2023-02-08T05:58:06;103070.28;;;6.31;100.00
42591;BME280;28218;53.342;-6.216;2023-02-08T06:00:34;103071.28;;;6.28;100.00
42591;BME280;28218;53.342;-6.216;2023-02-08T06:03:03;103074.97;;;6.24;100.00
42591;BME280;28218;53.342;-6.216;2023-02-08T06:05:31;103097.84;;;6.21;100.00
42591;BME280;28218;53.342;-6.216;2023-02-08T06:08:00;103082.25;;;6.19;100.00
42591;BME280;28218;53.342;-6.216;2023-02-08T06:10:29;103080.41;;;6.21;100.00
42591;BME280;28218;53.342;-6.216;2023-02-08T06:12:57;103042.81;;;6.22;100.00
42591;BME280;28218;53.342;-6.216;2023-02-08T06:15:26;103052.69;;;6.17;100.00
42591;BME280;28218;53.342;-6.216;2023-02-08T06:17:55;103044.91;;;6.15;100.00
42591;BME280;28218;53.342;-6.216;2023-02-08T06:20:23;103036.22;;;6.15;100.00
42591;BME280;28218;53.342;-6.216;2023-02-08T06:22:51;103041.38;;;6.17;100.00
42591;BME280;28218;53.342;-6.216;2023-02-08T06:25:21;103070.09;;;6.18;100.00
42591;BME280;28218;53.342;-6.216;2023-02-08T06:27:49;103080.41;;;6.21;100.00
42591;BME280;28218;53.342;-6.216;2023-02-08T06:30:17;103067.38;;;6.20;100.00
42591;BME280;28218;53.342;-6.216;2023-02-08T06:32:46;103063.91;;;6.19;100.00
42591;BME280;28218;53.342;-6.216;2023-02-08T06:35:14;103056.06;;;6.19;100.00
42591;BME280;28218;53.342;-6.216;2023-02-08T06:37:42;103047.59;;;6.14;100.00
42591;BME280;28218;53.342;-6.216;2023-02-08T06:40:11;103055.47;;;6.14;100.00
42591;BME280;28218;53.342;-6.216;2023-02-08T06:42:40;103050.97;;;6.16;100.00
42591;BME280;28218;53.342;-6.216;2023-02-08T06:45:09;103062.38;;;6.15;100.00
42591;BME280;28218;53.342;-6.216;2023-02-08T06:47:39;103067.63;;;6.15;100.00
42591;BME280;28218;53.342;-6.216;2023-02-08T06:50:08;103079.16;;;6.11;100.00
42591;BME280;28218;53.342;-6.216;2023-02-08T06:52:36;103088.81;;;6.10;100.00
42591;BME280;28218;53.342;-6.216;2023-02-08T06:55:05;103069.47;;;6.13;100.00
42591;BME280;28218;53.342;-6.216;2023-02-08T06:57:34;103070.22;;;6.15;100.00
42591;BME280;28218;53.342;-6.216;2023-02-08T07:00:05;103068.41;;;6.17;100.00
42591;BME280;28218;53.342;-6.216;2023-02-08T07:02:33;103053.53;;;6.18;100.00
42591;BME280;28218;53.342;-6.216;2023-02-08T07:05:01;103067.47;;;6.18;100.00
42591;BME280;28218;53.342;-6.216;2023-02-08T07:07:29;103048.97;;;6.21;100.00
42591;BME280;28218;53.342;-6.216;2023-02-08T07:10:02;103054.03;;;6.24;100.00
42591;BME280;28218;53.342;-6.216;2023-02-08T07:12:32;103054.88;;;6.25;100.00
42591;BME280;28218;53.342;-6.216;2023-02-08T07:15:00;103054.88;;;6.25;100.00
42591;BME280;28218;53.342;-6.216;2023-02-08T07:17:30;103051.41;;;6.24;100.00
42591;BME280;28218;53.342;-6.216;2023-02-08T07:19:58;103050.47;;;6.25;100.00
42591;BME280;28218;53.342;-6.216;2023-02-08T07:22:26;103044.41;;;6.25;100.00
42591;BME280;28218;53.342;-6.216;2023-02-08T07:24:54;103044.41;;;6.25;100.00
42591;BME280;28218;53.342;-6.216;2023-02-08T07:27:22;103041.88;;;6.23;100.00
42591;BME280;28218;53.342;-6.216;2023-02-08T07:29:51;103036.56;;;6.25;100.00
42591;BME280;28218;53.342;-6.216;2023-02-08T07:32:19;103047.81;;;6.27;100.00
42591;BME280;28218;53.342;-6.216;2023-02-08T07:34:49;103041.72;;;6.26;100.00
42591;BME280;28218;53.342;-6.216;2023-02-08T07:37:17;103039.00;;;6.28;100.00
42591;BME280;28218;53.342;-6.216;2023-02-08T07:39:45;103039.84;;;6.28;100.00
42591;BME280;28218;53.342;-6.216;2023-02-08T07:42:13;103043.41;;;6.27;100.00
42591;BME280;28218;53.342;-6.216;2023-02-08T07:44:42;103037.38;;;6.25;100.00
42591;BME280;28218;53.342;-6.216;2023-02-08T07:47:10;103039.94;;;6.27;100.00
42591;BME280;28218;53.342;-6.216;2023-02-08T07:49:38;103030.31;;;6.27;100.00
42591;BME280;28218;53.342;-6.216;2023-02-08T07:52:08;103031.25;;;6.26;100.00
42591;BME280;28218;53.342;-6.216;2023-02-08T07:54:36;103025.09;;;6.27;100.00
42591;BME280;28218;53.342;-6.216;2023-02-08T07:57:04;103013.00;;;6.25;100.00
42591;BME280;28218;53.342;-6.216;2023-02-08T07:59:32;103026.91;;;6.25;100.00
42591;BME280;28218;53.342;-6.216;2023-02-08T08:02:00;103022.56;;;6.26;100.00
42591;BME280;28218;53.342;-6.216;2023-02-08T08:04:28;103034.72;;;6.27;100.00
42591;BME280;28218;53.342;-6.216;2023-02-08T08:06:56;103020.78;;;6.26;100.00
42591;BME280;28218;53.342;-6.216;2023-02-08T08:09:26;103007.69;;;6.26;100.00
42591;BME280;28218;53.342;-6.216;2023-02-08T08:11:54;103010.31;;;6.26;100.00
42591;BME280;28218;53.342;-6.216;2023-02-08T08:14:22;103015.59;;;6.25;100.00
42591;BME280;28218;53.342;-6.216;2023-02-08T08:16:50;103005.97;;;6.25;100.00
42591;BME280;28218;53.342;-6.216;2023-02-08T08:19:19;103004.22;;;6.26;100.00
42591;BME280;28218;53.342;-6.216;2023-02-08T08:21:47;103000.69;;;6.27;100.00
42591;BME280;28218;53.342;-6.216;2023-02-08T08:24:15;102997.97;;;6.28;100.00
42591;BME280;28218;53.342;-6.216;2023-02-08T08:26:45;102979.63;;;6.28;100.00
42591;BME280;28218;53.342;-6.216;2023-02-08T08:29:13;102973.47;;;6.29;100.00
42591;BME280;28218;53.342;-6.216;2023-02-08T08:31:42;102959.63;;;6.27;100.00
42591;BME280;28218;53.342;-6.216;2023-02-08T08:34:10;102967.03;;;6.35;100.00
42591;BME280;28218;53.342;-6.216;2023-02-08T08:36:38;102949.13;;;6.43;100.00
42591;BME280;28218;53.342;-6.216;2023-02-08T08:39:07;102941.59;;;6.53;100.00
42591;BME280;28218;53.342;-6.216;2023-02-08T08:41:35;102952.66;;;6.58;100.00
42591;BME280;28218;53.342;-6.216;2023-02-08T08:44:06;102942.84;;;6.61;100.00
42591;BME280;28218;53.342;-6.216;2023-02-08T08:46:35;102936.34;;;6.69;100.00
42591;BME280;28218;53.342;-6.216;2023-02-08T08:49:03;102931.66;;;6.74;100.00
42591;BME280;28218;53.342;-6.216;2023-02-08T08:51:32;102930.03;;;6.87;100.00
42591;BME280;28218;53.342;-6.216;2023-02-08T08:54:01;102936.59;;;6.94;100.00
42591;BME280;28218;53.342;-6.216;2023-02-08T08:56:30;102946.91;;;6.97;100.00
42591;BME280;28218;53.342;-6.216;2023-02-08T08:58:58;102937.72;;;7.04;100.00
42591;BME280;28218;53.342;-6.216;2023-02-08T09:01:27;102947.94;;;7.09;100.00
42591;BME280;28218;53.342;-6.216;2023-02-08T09:03:59;102945.97;;;7.12;100.00
42591;BME280;28218;53.342;-6.216;2023-02-08T09:06:27;102947.50;;;7.16;100.00
42591;BME280;28218;53.342;-6.216;2023-02-08T09:08:56;102954.31;;;7.19;100.00
42591;BME280;28218;53.342;-6.216;2023-02-08T09:11:24;102955.91;;;7.22;100.00
42591;BME280;28218;53.342;-6.216;2023-02-08T09:13:52;102961.06;;;7.23;100.00
42591;BME280;28218;53.342;-6.216;2023-02-08T09:16:22;102949.47;;;7.27;100.00
42591;BME280;28218;53.342;-6.216;2023-02-08T09:18:52;102949.34;;;7.29;100.00
42591;BME280;28218;53.342;-6.216;2023-02-08T09:21:22;102954.53;;;7.30;100.00
42591;BME280;28218;53.342;-6.216;2023-02-08T09:23:51;102948.06;;;7.36;100.00
42591;BME280;28218;53.342;-6.216;2023-02-08T09:26:20;102952.94;;;7.42;100.00
42591;BME280;28218;53.342;-6.216;2023-02-08T09:28:48;102933.56;;;7.45;100.00
42591;BME280;28218;53.342;-6.216;2023-02-08T09:31:19;102948.25;;;7.47;100.00
42591;BME280;28218;53.342;-6.216;2023-02-08T09:33:50;102931.28;;;7.53;100.00
42591;BME280;28218;53.342;-6.216;2023-02-08T09:36:22;102924.84;;;7.58;100.00
42591;BME280;28218;53.342;-6.216;2023-02-08T09:38:56;102924.47;;;7.64;100.00
42591;BME280;28218;53.342;-6.216;2023-02-08T09:41:39;102916.97;;;7.73;100.00
42591;BME280;28218;53.342;-6.216;2023-02-08T09:44:18;102915.72;;;7.78;100.00
42591;BME280;28218;53.342;-6.216;2023-02-08T09:46:53;102902.13;;;7.86;100.00
42591;BME280;28218;53.342;-6.216;2023-02-08T09:49:30;102900.69;;;7.94;100.00
42591;BME280;28218;53.342;-6.216;2023-02-08T09:52:04;102880.03;;;8.03;100.00
42591;BME280;28218;53.342;-6.216;2023-02-08T09:54:36;102879.56;;;8.10;100.00
42591;BME280;28218;53.342;-6.216;2023-02-08T09:57:13;102882.63;;;8.17;100.00
42591;BME280;28218;53.342;-6.216;2023-02-08T09:59:50;102876.03;;;8.24;100.00
42591;BME280;28218;53.342;-6.216;2023-02-08T10:02:23;102881.72;;;8.31;100.00
42591;BME280;28218;53.342;-6.216;2023-02-08T10:04:59;102873.66;;;8.34;100.00
42591;BME280;28218;53.342;-6.216;2023-02-08T10:07:30;102862.19;;;8.35;100.00
42591;BME280;28218;53.342;-6.216;2023-02-08T10:10:01;102865.00;;;8.32;100.00
42591;BME280;28218;53.342;-6.216;2023-02-08T10:12:38;102858.63;;;8.36;100.00
42591;BME280;28218;53.342;-6.216;2023-02-08T10:15:13;102854.03;;;8.39;100.00
42591;BME280;28218;53.342;-6.216;2023-02-08T10:18:07;102865.28;;;8.41;100.00
42591;BME280;28218;53.342;-6.216;2023-02-08T10:20:49;102842.28;;;8.45;100.00
42591;BME280;28218;53.342;-6.216;2023-02-08T10:23:44;102832.28;;;8.50;100.00
42591;BME280;28218;53.342;-6.216;2023-02-08T10:26:21;102832.22;;;8.52;100.00
42591;BME280;28218;53.342;-6.216;2023-02-08T10:29:03;102828.31;;;8.57;100.00
42591;BME280;28218;53.342;-6.216;2023-02-08T10:31:48;102837.56;;;8.63;100.00
42591;BME280;28218;53.342;-6.216;2023-02-08T10:34:30;102828.53;;;8.67;100.00
42591;BME280;28218;53.342;-6.216;2023-02-08T10:37:03;102831.16;;;8.67;100.00
42591;BME280;28218;53.342;-6.216;2023-02-08T10:39:39;102832.13;;;8.66;100.00
42591;BME280;28218;53.342;-6.216;2023-02-08T10:42:12;102828.44;;;8.68;100.00
42591;BME280;28218;53.342;-6.216;2023-02-08T10:44:52;102834.53;;;8.69;100.00
42591;BME280;28218;53.342;-6.216;2023-02-08T10:47:40;102811.72;;;8.69;100.00
42591;BME280;28218;53.342;-6.216;2023-02-08T10:50:16;102812.66;;;8.68;100.00
42591;BME280;28218;53.342;-6.216;2023-02-08T10:52:47;102818.66;;;8.70;100.00
42591;BME280;28218;53.342;-6.216;2023-02-08T10:55:19;102817.41;;;8.76;100.00
42591;BME280;28218;53.342;-6.216;2023-02-08T10:57:50;102813.50;;;8.82;100.00
42591;BME280;28218;53.342;-6.216;2023-02-08T11:00:21;102831.72;;;8.85;100.00
42591;BME280;28218;53.342;-6.216;2023-02-08T11:02:51;102831.41;;;8.89;100.00
42591;BME280;28218;53.342;-6.216;2023-02-08T11:05:20;102818.13;;;8.91;100.00
42591;BME280;28218;53.342;-6.216;2023-02-08T11:08:05;102811.81;;;8.93;100.00
42591;BME280;28218;53.342;-6.216;2023-02-08T11:10:36;102825.59;;;8.97;100.00
42591;BME280;28218;53.342;-6.216;2023-02-08T11:13:14;102827.78;;;9.03;100.00
42591;BME280;28218;53.342;-6.216;2023-02-08T11:15:46;102822.97;;;9.10;100.00
42591;BME280;28218;53.342;-6.216;2023-02-08T11:18:19;102814.63;;;9.16;100.00
42591;BME280;28218;53.342;-6.216;2023-02-08T11:20:50;102809.78;;;9.23;100.00
42591;BME280;28218;53.342;-6.216;2023-02-08T11:23:24;102811.16;;;9.28;100.00
42591;BME280;28218;53.342;-6.216;2023-02-08T11:26:13;102811.78;;;9.32;100.00
42591;BME280;28218;53.342;-6.216;2023-02-08T11:28:42;102807.88;;;9.37;100.00
42591;BME280;28218;53.342;-6.216;2023-02-08T11:31:16;102810.88;;;9.44;100.00
42591;BME280;28218;53.342;-6.216;2023-02-08T11:34:06;102800.66;;;9.52;100.00
42591;BME280;28218;53.342;-6.216;2023-02-08T11:36:44;102800.13;;;9.60;100.00
42591;BME280;28218;53.342;-6.216;2023-02-08T11:39:20;102788.38;;;9.64;100.00
42591;BME280;28218;53.342;-6.216;2023-02-08T11:41:53;102775.97;;;9.66;100.00
42591;BME280;28218;53.342;-6.216;2023-02-08T11:44:25;102768.06;;;9.66;100.00
42591;BME280;28218;53.342;-6.216;2023-02-08T11:46:56;102772.25;;;9.68;100.00
42591;BME280;28218;53.342;-6.216;2023-02-08T11:49:27;102761.63;;;9.70;100.00
42591;BME280;28218;53.342;-6.216;2023-02-08T11:51:56;102760.00;;;9.80;100.00
42591;BME280;28218;53.342;-6.216;2023-02-08T11:54:33;102749.84;;;9.87;100.00
42591;BME280;28218;53.342;-6.216;2023-02-08T11:57:10;102761.72;;;9.92;100.00
42591;BME280;28218;53.342;-6.216;2023-02-08T11:59:39;102749.06;;;9.97;100.00
42591;BME280;28218;53.342;-6.216;2023-02-08T12:02:26;102750.50;;;10.02;100.00
42591;BME280;28218;53.342;-6.216;2023-02-08T12:04:56;102748.00;;;10.11;100.00
42591;BME280;28218;53.342;-6.216;2023-02-08T12:07:33;102746.94;;;10.14;100.00
42591;BME280;28218;53.342;-6.216;2023-02-08T12:10:20;102744.81;;;10.19;100.00
42591;BME280;28218;53.342;-6.216;2023-02-08T12:13:01;102746.06;;;10.26;100.00
42591;BME280;28218;53.342;-6.216;2023-02-08T12:15:35;102742.22;;;10.30;100.00
42591;BME280;28218;53.342;-6.216;2023-02-08T12:18:39;102732.19;;;10.35;100.00
42591;BME280;28218;53.342;-6.216;2023-02-08T12:21:14;102713.25;;;10.41;100.00
42591;BME280;28218;53.342;-6.216;2023-02-08T12:23:48;102715.78;;;10.43;100.00
42591;BME280;28218;53.342;-6.216;2023-02-08T12:26:23;102712.06;;;10.45;100.00
42591;BME280;28218;53.342;-6.216;2023-02-08T12:29:05;102705.84;;;10.46;100.00
42591;BME280;28218;53.342;-6.216;2023-02-08T12:31:59;102696.97;;;10.47;100.00
42591;BME280;28218;53.342;-6.216;2023-02-08T12:34:44;102700.56;;;10.46;100.00
42591;BME280;28218;53.342;-6.216;2023-02-08T12:37:25;102690.16;;;10.45;100.00
42591;BME280;28218;53.342;-6.216;2023-02-08T12:40:25;102676.00;;;10.46;100.00
42591;BME280;28218;53.342;-6.216;2023-02-08T12:43:29;102667.28;;;10.45;100.00
42591;BME280;28218;53.342;-6.216;2023-02-08T12:46:17;102663.81;;;10.45;100.00
42591;BME280;28218;53.342;-6.216;2023-02-08T12:48:59;102665.47;;;10.46;100.00
42591;BME280;28218;53.342;-6.216;2023-02-08T12:51:38;102667.28;;;10.45;100.00
42591;BME280;28218;53.342;-6.216;2023-02-08T12:54:11;102667.13;;;10.47;100.00
42591;BME280;28218;53.342;-6.216;2023-02-08T12:56:44;102644.25;;;10.47;100.00
42591;BME280;28218;53.342;-6.216;2023-02-08T12:59:32;102642.94;;;10.53;100.00
42591;BME280;28218;53.342;-6.216;2023-02-08T13:02:13;102643.53;;;10.57;100.00
42591;BME280;28218;53.342;-6.216;2023-02-08T13:04:46;102637.06;;;10.61;100.00
42591;BME280;28218;53.342;-6.216;2023-02-08T13:07:19;102630.81;;;10.62;100.00
42591;BME280;28218;53.342;-6.216;2023-02-08T13:09:56;102625.31;;;10.65;100.00